Time;durP1;ratioP1;P1;durP2;ratioP2;P2;SDS_P1;SDS_P2;PMS_P1;PMS_P2;Temp;Humidity;BMP_temperature;BMP_pressure;BME280_temperature;BME280_humidity;BME280_pressure;Samples;Min_cycle;Max_cycle;Signal;HPM_P1;HPM_P2
2020/12/04 00:03:16;;;;;;;47.08;25.65;;;;;;;4.35;77.50;98828.42;2908280;81;21607;-66
2020/12/04 00:07:19;;;;;;;45.45;30.45;;;;;;;4.34;77.60;98822.33;2908499;81;21118;-66
2020/12/04 00:11:22;;;;;;;44.00;32.80;;;;;;;4.40;77.77;98828.88;2908951;81;21178;-67
2020/12/04 00:15:25;;;;;;;60.40;39.70;;;;;;;4.49;77.53;98811.05;2920795;81;21109;-67
2020/12/04 00:19:28;;;;;;;57.75;35.55;;;;;;;4.54;76.89;98815.95;2920907;81;21627;-66
2020/12/04 00:23:32;;;;;;;62.73;37.83;;;;;;;4.57;76.88;98815.70;2921101;81;21147;-66
2020/12/04 00:27:36;;;;;;;58.00;38.35;;;;;;;4.56;76.66;98802.17;2920770;81;21153;-66
2020/12/04 00:31:38;;;;;;;50.50;32.03;;;;;;;4.47;76.96;98798.95;2920688;81;21165;-67
2020/12/04 00:35:41;;;;;;;71.77;39.20;;;;;;;4.40;77.25;98799.45;2920847;81;21141;-67
2020/12/04 00:39:44;;;;;;;72.32;40.73;;;;;;;4.44;77.47;98794.78;2920770;81;21109;-67
2020/12/04 00:43:47;;;;;;;66.70;39.88;;;;;;;4.49;77.49;98795.70;2921123;81;21136;-67
2020/12/04 00:47:50;;;;;;;70.42;40.23;;;;;;;4.58;77.41;98802.88;2884454;81;21128;-67
2020/12/04 00:51:53;;;;;;;61.28;38.33;;;;;;;4.64;77.23;98810.28;2871772;82;21128;-67
2020/12/04 00:56:04;;;;;;;65.22;38.65;;;;;;;4.69;77.17;98798.88;2762594;82;21218;-67
2020/12/04 01:00:07;;;;;;;71.40;42.67;;;;;;;4.78;77.06;98795.16;2793351;85;21177;-67
2020/12/04 01:04:10;;;;;;;61.35;41.05;;;;;;;4.80;76.78;98801.14;2765459;85;21178;-67
2020/12/04 01:08:12;;;;;;;61.33;41.18;;;;;;;4.82;76.75;98797.89;2793544;85;21153;-67
2020/12/04 01:12:16;;;;;;;63.20;41.28;;;;;;;4.80;76.79;98787.47;2765543;84;21203;-67
2020/12/04 01:16:18;;;;;;;58.02;37.80;;;;;;;4.84;76.78;98787.59;2793215;85;21173;-66
2020/12/04 01:20:21;;;;;;;63.25;37.75;;;;;;;4.87;76.63;98785.17;2765534;85;21179;-66
2020/12/04 01:24:24;;;;;;;64.37;38.55;;;;;;;4.91;76.63;98776.54;2765521;86;21189;-67
2020/12/04 01:28:27;;;;;;;60.17;37.15;;;;;;;4.90;76.56;98778.33;2793492;85;21185;-66
2020/12/04 01:32:32;;;;;;;56.58;37.67;;;;;;;4.90;76.43;98780.14;2764023;84;21191;-67
2020/12/04 01:36:34;;;;;;;66.20;39.27;;;;;;;4.90;76.47;98776.19;2791219;85;21137;-67
2020/12/04 01:40:39;;;;;;;60.67;33.15;;;;;;;4.86;76.40;98771.64;2767628;86;21176;-67
2020/12/04 01:44:41;;;;;;;60.30;35.23;;;;;;;4.80;76.40;98756.34;2767415;86;21212;-67
2020/12/04 01:48:45;;;;;;;59.50;37.40;;;;;;;4.79;76.51;98754.18;2767440;86;21209;-66
2020/12/04 01:52:49;;;;;;;41.10;29.90;;;;;;;4.78;76.55;98741.16;2767238;86;21173;-67
2020/12/04 01:56:52;;;;;;;53.13;32.03;;;;;;;4.73;76.58;98740.20;2767622;86;21172;-67
2020/12/04 02:00:57;;;;;;;49.13;32.70;;;;;;;4.71;76.79;98737.69;2783222;85;21138;-67
2020/12/04 02:05:00;;;;;;;45.20;29.45;;;;;;;4.73;76.76;98727.03;2756421;85;21197;-67
2020/12/04 02:09:20;;;;;;;51.42;33.38;;;;;;;4.66;76.86;98708.27;2787620;85;21158;-67
2020/12/04 02:13:34;;;;;;;50.60;32.95;;;;;;;4.76;77.11;98696.98;2997099;77;23454;-66
2020/12/04 02:17:37;;;;;;;50.43;33.93;;;;;;;4.74;76.91;98681.29;2951834;80;21169;-66
2020/12/04 02:21:42;;;;;;;66.10;40.25;;;;;;;4.68;76.95;98666.82;2951475;79;21142;-67
2020/12/04 02:25:45;;;;;;;48.02;30.12;;;;;;;4.57;77.19;98661.13;2951785;80;21113;-66
2020/12/04 02:30:12;;;;;;;62.53;37.38;;;;;;;4.46;77.64;98666.94;2951400;79;21177;-66
2020/12/04 02:34:15;;;;;;;57.73;34.92;;;;;;;4.43;78.04;98658.33;2877238;81;21118;-66
2020/12/04 02:38:18;;;;;;;55.33;33.67;;;;;;;4.40;78.08;98638.84;2875088;82;21161;-66
2020/12/04 02:42:20;;;;;;;54.58;36.00;;;;;;;4.37;78.39;98639.11;2874623;82;21157;-66
2020/12/04 02:46:23;;;;;;;55.45;34.53;;;;;;;4.35;78.50;98633.13;2874974;82;21149;-67
2020/12/04 02:50:26;;;;;;;54.23;34.38;;;;;;;4.30;78.65;98630.02;2874819;82;21149;-67
2020/12/04 02:54:29;;;;;;;50.28;30.25;;;;;;;4.35;78.88;98625.70;2874965;82;22276;-67
2020/12/04 02:58:32;;;;;;;52.27;32.17;;;;;;;4.42;78.86;98621.13;2874872;82;21161;-67
2020/12/04 03:02:35;;;;;;;50.55;30.60;;;;;;;4.48;78.68;98605.77;2875091;82;21133;-66
2020/12/04 03:06:39;;;;;;;45.88;30.17;;;;;;;4.50;78.56;98609.10;2889852;81;21167;-66
2020/12/04 03:10:42;;;;;;;47.50;27.95;;;;;;;4.56;78.46;98609.93;2925926;81;21198;-67
2020/12/04 03:14:45;;;;;;;41.90;27.25;;;;;;;4.64;78.33;98592.98;2925853;81;21112;-66
2020/12/04 03:18:48;;;;;;;43.50;28.27;;;;;;;4.64;78.09;98565.33;2926048;81;21121;-66
2020/12/04 03:22:51;;;;;;;39.90;26.27;;;;;;;4.66;78.07;98571.30;2925888;81;21161;-66
2020/12/04 03:26:53;;;;;;;31.52;22.25;;;;;;;4.66;78.13;98560.77;2887894;81;21161;-67
2020/12/04 03:30:56;;;;;;;26.35;17.70;;;;;;;4.66;78.28;98555.50;2834045;82;21191;-68
2020/12/04 03:34:59;;;;;;;40.90;22.42;;;;;;;4.70;78.77;98549.00;2874365;82;21137;-68
2020/12/04 03:39:03;;;;;;;31.50;23.55;;;;;;;4.77;78.84;98549.81;2854551;82;21167;-68
2020/12/04 03:43:06;;;;;;;31.33;21.65;;;;;;;4.83;79.02;98541.37;2825344;84;21164;-67
2020/12/04 03:47:08;;;;;;;28.23;18.98;;;;;;;4.90;78.98;98540.36;2825114;84;21209;-67
2020/12/04 03:51:12;;;;;;;41.63;22.30;;;;;;;4.97;78.92;98528.31;2825394;82;21128;-67
2020/12/04 03:55:15;;;;;;;42.85;26.55;;;;;;;5.04;78.80;98535.20;2825517;84;21188;-67
2020/12/04 03:59:18;;;;;;;52.48;30.85;;;;;;;5.08;78.67;98532.64;2832121;81;21134;-67
2020/12/04 04:03:21;;;;;;;62.55;33.65;;;;;;;5.10;78.60;98522.33;2843291;82;21187;-68
2020/12/04 04:07:23;;;;;;;57.23;33.02;;;;;;;5.07;78.82;98503.31;2873663;82;21149;-68
2020/12/04 04:11:26;;;;;;;52.60;33.73;;;;;;;5.09;78.92;98504.00;2856438;82;21116;-68
2020/12/04 04:15:29;;;;;;;49.65;33.02;;;;;;;5.12;79.00;98509.03;2845483;83;21172;-68
2020/12/04 04:19:32;;;;;;;64.47;42.10;;;;;;;5.13;79.04;98510.20;2845344;83;21160;-68
2020/12/04 04:23:35;;;;;;;76.17;43.50;;;;;;;5.18;78.95;98501.05;2845840;83;21116;-68
2020/12/04 04:27:39;;;;;;;73.45;47.73;;;;;;;5.16;78.96;98509.11;2845703;83;21705;-68
2020/12/04 04:31:41;;;;;;;72.72;42.58;;;;;;;5.14;78.99;98493.91;2844357;82;21627;-68
2020/12/04 04:35:44;;;;;;;69.58;49.77;;;;;;;5.19;78.91;98497.44;2828630;82;21155;-68
2020/12/04 04:39:47;;;;;;;76.87;49.75;;;;;;;5.20;78.86;98490.73;2869978;82;21149;-66
2020/12/04 04:43:50;;;;;;;77.85;46.42;;;;;;;5.19;78.80;98498.29;2873666;82;21149;-68
2020/12/04 04:47:53;;;;;;;79.90;46.90;;;;;;;5.20;78.76;98501.27;2825443;83;21183;-69
2020/12/04 04:51:58;;;;;;;69.65;43.70;;;;;;;5.19;78.84;98498.29;2825095;84;21168;-68
2020/12/04 04:56:01;;;;;;;71.80;45.75;;;;;;;5.22;78.81;98497.20;2825344;84;21171;-68
2020/12/04 05:00:04;;;;;;;77.35;44.75;;;;;;;5.21;78.87;98491.08;2825231;84;21167;-69
2020/12/04 05:04:07;;;;;;;71.70;43.25;;;;;;;5.20;78.94;98501.73;2838173;82;21625;-68
2020/12/04 05:08:16;;;;;;;78.12;51.33;;;;;;;5.20;79.08;98499.11;2856705;82;21171;-66
2020/12/04 05:12:20;;;;;;;70.87;46.73;;;;;;;5.21;79.11;98491.55;2873646;82;21149;-69
2020/12/04 05:16:29;;;;;;;76.55;49.75;;;;;;;5.22;79.11;98495.38;2873755;82;21121;-70
2020/12/04 05:20:39;;;;;;;70.70;47.55;;;;;;;5.27;79.04;98485.75;2874060;82;21185;-71
2020/12/04 05:24:44;;;;;;;74.95;46.40;;;;;;;5.27;78.86;98487.07;2840046;82;21161;-73
2020/12/04 05:28:48;;;;;;;66.28;44.98;;;;;;;5.26;79.07;98485.41;2851930;82;21151;-73
2020/12/04 05:33:05;;;;;;;75.40;46.60;;;;;;;5.22;79.17;98483.52;2848345;82;21615;-73
2020/12/04 05:37:13;;;;;;;77.95;46.58;;;;;;;5.18;79.44;98483.44;2840421;82;21145;-73
2020/12/04 05:41:16;;;;;;;68.45;41.25;;;;;;;5.23;79.67;98481.22;2873803;82;21133;-71
2020/12/04 05:45:20;;;;;;;73.15;41.58;;;;;;;5.21;79.50;98469.14;2829142;82;21470;-71
2020/12/04 05:49:23;;;;;;;62.53;38.28;;;;;;;5.14;79.75;98463.10;2825004;83;21171;-72
2020/12/04 05:53:25;;;;;;;63.78;38.60;;;;;;;5.07;80.00;98480.44;2824736;83;21159;-72
2020/12/04 05:57:29;;;;;;;73.78;43.70;;;;;;;5.08;80.25;98477.30;2825043;84;21163;-72
2020/12/04 06:01:32;;;;;;;62.43;40.30;;;;;;;5.09;80.27;98477.18;2825550;84;21146;-72
2020/12/04 06:05:34;;;;;;;64.55;41.98;;;;;;;5.15;80.28;98490.30;2824983;84;21135;-71
2020/12/04 06:09:38;;;;;;;70.70;43.75;;;;;;;5.17;80.38;98484.41;2825101;84;21700;-71
2020/12/04 06:13:41;;;;;;;81.50;45.10;;;;;;;5.20;80.58;98496.00;2824872;84;21143;-71
2020/12/04 06:17:44;;;;;;;60.80;36.95;;;;;;;5.23;80.49;98493.09;2825292;84;21120;-72
2020/12/04 06:21:49;;;;;;;69.85;39.08;;;;;;;5.27;80.50;98491.84;2825162;83;21155;-72
2020/12/04 06:25:58;;;;;;;62.95;37.95;;;;;;;5.25;80.43;98479.28;2825210;83;21563;-72
2020/12/04 06:30:06;;;;;;;74.85;43.55;;;;;;;5.29;80.27;98473.27;2825107;84;21148;-72
2020/12/04 06:34:22;;;;;;;54.05;35.10;;;;;;;5.30;80.07;98467.02;2772886;84;21182;-72
2020/12/04 06:38:40;;;;;;;77.25;39.70;;;;;;;5.22;80.14;98455.83;2792916;85;21177;-72
2020/12/04 06:42:43;;;;;;;58.85;36.95;;;;;;;5.24;80.10;98451.76;2791923;85;21192;-71
2020/12/04 06:46:55;;;;;;;57.10;34.58;;;;;;;5.23;80.07;98449.59;2806132;83;21160;-73
2020/12/04 06:50:58;;;;;;;53.15;32.53;;;;;;;5.18;80.09;98451.81;2744456;86;21178;-74
2020/12/04 06:55:02;;;;;;;56.33;37.38;;;;;;;5.12;80.00;98445.78;2743530;86;21193;-73
2020/12/04 06:59:05;;;;;;;58.38;35.73;;;;;;;5.04;79.86;98442.97;2744706;86;21197;-70
2020/12/04 07:03:09;;;;;;;53.15;36.00;;;;;;;4.94;80.10;98443.80;2744418;86;21141;-72
2020/12/04 07:07:32;;;;;;;199.20;123.28;;;;;;;4.94;80.65;98425.34;2760960;85;21150;-73
2020/12/04 07:11:39;;;;;;;293.33;200.25;;;;;;;5.08;80.65;98428.08;2773333;85;22056;-73
2020/12/04 07:15:41;;;;;;;121.97;80.80;;;;;;;5.16;79.76;98435.30;2790395;85;21166;-72
2020/12/04 07:19:48;;;;;;;72.15;43.78;;;;;;;5.20;79.85;98441.96;2772616;85;21132;-73
2020/12/04 07:23:52;;;;;;;;;;;;;;;5.29;80.20;98436.35;2793472;85;21142;-73
2020/12/04 07:27:56;;;;;;;60.30;38.05;;;;;;;5.41;80.58;98446.28;2790592;85;20191;-70
2020/12/04 07:31:58;;;;;;;55.40;34.98;;;;;;;5.57;80.33;98458.91;2773147;85;21235;-72
2020/12/04 07:36:05;;;;;;;37.45;25.23;;;;;;;5.77;80.35;98480.86;2799710;85;21186;-71
2020/12/04 07:40:09;;;;;;;46.73;34.50;;;;;;;5.95;79.95;98486.25;2775685;85;21166;-73
2020/12/04 07:44:14;;;;;;;50.83;34.10;;;;;;;6.09;78.95;98487.67;2799458;85;21166;-72
2020/12/04 07:48:18;;;;;;;55.90;31.95;;;;;;;6.23;78.54;98490.35;2775757;85;21158;-72
2020/12/04 07:52:31;;;;;;;45.15;29.98;;;;;;;6.31;78.19;98483.05;2799506;85;21631;-68
2020/12/04 07:56:36;;;;;;;43.92;29.02;;;;;;;6.45;78.22;98475.14;2775728;85;21182;-71
2020/12/04 08:00:39;;;;;;;47.15;29.25;;;;;;;6.66;77.85;98478.88;2796660;85;21178;-71
2020/12/04 08:04:45;;;;;;;43.13;28.85;;;;;;;6.83;77.36;98478.61;2774037;85;21173;-66
2020/12/04 08:09:09;;;;;;;46.13;29.85;;;;;;;6.97;76.67;98483.05;2788604;85;21182;-72
2020/12/04 08:13:12;;;;;;;40.08;31.93;;;;;;;7.09;76.50;98485.03;2775182;85;21198;-71
2020/12/04 08:17:18;;;;;;;54.13;32.00;;;;;;;7.21;76.01;98480.36;2728249;87;21218;-68
2020/12/04 08:21:21;;;;;;;46.63;32.63;;;;;;;7.31;75.85;98482.95;2728115;86;21206;-69
2020/12/04 08:25:29;;;;;;;115.28;87.78;;;;;;;7.31;75.05;98494.85;2728259;86;21221;-70
2020/12/04 08:29:34;;;;;;;90.15;59.38;;;;;;;7.20;74.88;98487.96;2728083;87;21122;-69
2020/12/04 08:33:41;;;;;;;70.12;44.93;;;;;;;7.08;75.07;98485.50;2753272;86;21207;-69
2020/12/04 08:37:45;;;;;;;63.40;39.38;;;;;;;7.03;75.41;98493.05;2777247;85;21604;-68
2020/12/04 08:41:48;;;;;;;56.95;36.90;;;;;;;7.02;75.67;98502.44;2775622;85;21178;-69
2020/12/04 08:45:54;;;;;;;62.03;33.90;;;;;;;7.05;75.63;98508.75;2799986;85;21176;-69
2020/12/04 08:50:23;;;;;;;50.28;33.55;;;;;;;7.07;75.75;98497.54;2775684;85;21186;-69
2020/12/04 08:54:27;;;;;;;44.90;31.00;;;;;;;7.15;75.90;98491.86;2799707;85;21138;-69
2020/12/04 08:58:30;;;;;;;50.67;35.05;;;;;;;7.26;75.83;98500.07;2775501;85;21174;-69
2020/12/04 09:02:34;;;;;;;54.05;35.75;;;;;;;7.41;75.71;98506.19;2790313;85;21166;-69
2020/12/04 09:06:37;;;;;;;33.05;22.00;;;;;;;7.53;75.46;98508.13;2772986;85;21150;-68
2020/12/04 09:10:41;;;;;;;34.27;25.32;;;;;;;7.64;75.21;98512.36;2773355;85;21139;-69
2020/12/04 09:14:44;;;;;;;50.80;28.75;;;;;;;7.70;74.74;98515.24;2772889;85;21191;-68
2020/12/04 09:18:47;;;;;;;34.70;21.27;;;;;;;7.75;74.69;98517.44;2772916;85;21175;-68
2020/12/04 09:22:50;;;;;;;40.15;28.67;;;;;;;7.80;74.60;98519.14;2772874;85;21424;-69
2020/12/04 09:26:54;;;;;;;37.83;26.48;;;;;;;7.86;74.58;98515.91;2772907;85;21488;-70
2020/12/04 09:30:59;;;;;;;29.48;22.80;;;;;;;7.95;74.34;98508.84;2772876;85;21178;-69
2020/12/04 09:35:05;;;;;;;36.77;26.83;;;;;;;8.05;73.95;98508.75;2773016;85;21185;-70
2020/12/04 09:39:08;;;;;;;26.60;20.77;;;;;;;8.13;73.69;98496.91;2773059;85;21151;-67
2020/12/04 09:43:12;;;;;;;46.15;32.13;;;;;;;8.29;73.40;98491.40;2772914;85;21505;-70
2020/12/04 09:47:17;;;;;;;38.38;27.22;;;;;;;8.44;73.13;98495.12;2770918;85;21165;-68
2020/12/04 09:51:20;;;;;;;33.80;22.82;;;;;;;8.65;73.20;98487.34;2772929;85;21151;-70
2020/12/04 09:55:25;;;;;;;29.48;21.10;;;;;;;8.81;72.47;98488.39;2773302;85;21211;-68
2020/12/04 09:59:29;;;;;;;24.87;17.25;;;;;;;8.95;72.28;98492.28;2773060;85;21170;-69
2020/12/04 10:03:33;;;;;;;27.67;19.65;;;;;;;9.07;71.77;98494.16;2773172;85;21199;-68
2020/12/04 10:07:36;;;;;;;24.12;16.60;;;;;;;9.12;71.44;98482.56;2772926;85;21146;-68
2020/12/04 10:11:39;;;;;;;29.48;20.65;;;;;;;9.12;71.14;98475.92;2773150;85;21226;-68
2020/12/04 10:15:43;;;;;;;46.65;31.20;;;;;;;9.06;70.90;98480.56;2772877;85;21170;-67
2020/12/04 10:19:47;;;;;;;33.80;25.30;;;;;;;8.94;70.91;98490.59;2772879;85;21125;-67
2020/12/04 10:38:35;;;;;;;24.12;18.05;;;;;;;8.35;71.29;98429.83;2885595;80;23422;-67
2020/12/04 10:42:38;;;;;;;35.13;22.93;;;;;;;8.07;71.95;98429.16;2893509;82;21166;-69
2020/12/04 10:46:41;;;;;;;21.93;15.15;;;;;;;7.93;72.68;98420.79;2893820;82;21106;-65
2020/12/04 10:50:47;;;;;;;40.55;25.43;;;;;;;7.96;73.30;98410.39;2893587;82;21157;-67
2020/12/04 10:54:50;;;;;;;37.53;24.35;;;;;;;8.10;73.50;98401.89;2893848;82;21552;-67
2020/12/04 10:58:53;;;;;;;38.33;25.43;;;;;;;8.29;73.15;98388.91;2895934;81;21164;-66
2020/12/04 11:03:09;;;;;;;36.65;26.17;;;;;;;8.48;72.92;98388.84;2893993;82;21157;-66
2020/12/04 11:07:06;;;;;;;41.83;28.45;;;;;;;8.68;72.49;98400.03;2893550;81;21137;-66
2020/12/04 11:11:10;;;;;;;40.43;30.85;;;;;;;8.82;71.95;98391.95;2898341;82;21214;-65
2020/12/04 11:15:16;;;;;;;37.10;29.02;;;;;;;8.91;71.62;98391.00;2897037;82;21156;-67
2020/12/04 11:19:19;;;;;;;51.23;31.15;;;;;;;8.97;71.34;98393.00;2894086;81;22203;-67
2020/12/04 11:23:22;;;;;;;27.25;19.55;;;;;;;9.07;71.32;98396.83;2893227;82;21134;-67
2020/12/04 11:27:25;;;;;;;34.23;23.25;;;;;;;9.19;71.00;98408.47;2893758;81;21114;-66
2020/12/04 11:31:28;;;;;;;32.08;19.20;;;;;;;9.24;70.77;98418.09;2883594;81;21158;-67
2020/12/04 11:35:31;;;;;;;44.23;28.38;;;;;;;9.31;70.30;98416.95;2848828;82;21188;-66
2020/12/04 11:39:39;;;;;;;30.23;20.35;;;;;;;9.30;70.35;98416.09;2869871;83;21133;-66
2020/12/04 11:43:40;;;;;;;35.48;23.25;;;;;;;9.30;70.19;98412.12;2869786;83;21192;-67
2020/12/04 11:47:43;;;;;;;25.80;17.30;;;;;;;9.27;70.58;98408.47;2870152;83;21104;-66
2020/12/04 11:51:46;;;;;;;20.97;18.07;;;;;;;9.23;70.45;98414.59;2869812;82;21602;-67
2020/12/04 11:55:49;;;;;;;20.85;12.75;;;;;;;9.11;70.34;98409.28;2870000;81;21180;-69
2020/12/04 11:59:52;;;;;;;16.20;12.33;;;;;;;8.96;70.67;98409.09;2856634;83;21152;-67
2020/12/04 12:03:55;;;;;;;17.00;13.08;;;;;;;8.80;70.91;98405.87;2821376;84;22299;-68
2020/12/04 12:07:58;;;;;;;11.18;9.55;;;;;;;8.62;71.23;98408.63;2821249;83;21172;-66
2020/12/04 12:12:01;;;;;;;18.52;14.73;;;;;;;8.54;71.71;98406.77;2821723;84;21164;-69
2020/12/04 12:16:06;;;;;;;16.52;14.20;;;;;;;8.51;71.84;98405.27;2821435;84;21199;-69
2020/12/04 12:20:09;;;;;;;17.90;16.00;;;;;;;8.52;72.04;98411.41;2821686;84;21133;-69
2020/12/04 12:24:11;;;;;;;22.98;15.00;;;;;;;8.53;72.46;98407.25;2822160;84;22225;-69
2020/12/04 12:28:15;;;;;;;22.07;15.48;;;;;;;8.60;72.29;98412.75;2821756;84;21171;-69
2020/12/04 12:32:19;;;;;;;23.95;16.07;;;;;;;8.86;71.87;98423.80;2821754;83;21186;-68
2020/12/04 12:36:25;;;;;;;26.68;18.15;;;;;;;8.95;71.50;98424.16;2822004;84;21172;-71
2020/12/04 12:40:28;;;;;;;21.97;16.57;;;;;;;9.07;70.47;98423.87;2864178;82;21115;-69
2020/12/04 12:44:31;;;;;;;24.60;19.50;;;;;;;9.07;70.47;98422.03;2866290;83;21228;-70
2020/12/04 12:48:35;;;;;;;25.32;17.67;;;;;;;9.07;70.24;98423.87;2866119;83;21570;-69
2020/12/04 12:52:38;;;;;;;21.45;15.83;;;;;;;9.07;70.57;98410.09;2866393;82;21136;-68
2020/12/04 12:56:40;;;;;;;22.00;16.25;;;;;;;9.02;70.70;98417.72;2866534;83;21154;-70
2020/12/04 13:00:44;;;;;;;21.60;15.40;;;;;;;9.04;70.82;98404.27;2866491;83;21167;-69
2020/12/04 13:04:47;;;;;;;17.27;13.38;;;;;;;9.06;70.45;98406.30;2866261;83;21179;-68
2020/12/04 13:08:50;;;;;;;17.70;11.90;;;;;;;9.09;70.10;98401.47;2866702;83;21167;-69
2020/12/04 13:12:53;;;;;;;20.97;13.95;;;;;;;9.15;69.65;98402.66;2866325;83;21594;-68
2020/12/04 13:16:56;;;;;;;21.40;16.00;;;;;;;9.15;68.75;98390.72;2866426;83;21096;-69
2020/12/04 13:20:59;;;;;;;25.00;14.18;;;;;;;9.16;68.92;98402.98;2866616;83;21135;-69
2020/12/04 13:25:02;;;;;;;28.70;19.70;;;;;;;9.11;69.03;98387.55;2866575;83;21199;-69
2020/12/04 13:29:06;;;;;;;44.53;27.67;;;;;;;9.08;69.26;98402.98;2866312;83;21180;-70
2020/12/04 13:33:10;;;;;;;68.10;41.20;;;;;;;8.97;69.02;98406.77;2866262;83;21156;-71
2020/12/04 13:37:13;;;;;;;79.25;44.18;;;;;;;8.90;69.15;98413.69;2868047;82;21148;-70
2020/12/04 13:41:16;;;;;;;95.87;58.02;;;;;;;8.84;69.54;98433.23;2870268;81;21136;-70
2020/12/04 13:45:19;;;;;;;56.28;35.88;;;;;;;8.78;69.57;98422.44;2870568;81;21128;-69
2020/12/04 13:49:23;;;;;;;106.20;63.28;;;;;;;8.79;69.56;98428.07;2870343;82;21137;-68
2020/12/04 13:53:26;;;;;;;79.77;49.05;;;;;;;8.84;69.46;98412.50;2870334;82;21188;-66
2020/12/04 13:57:29;;;;;;;43.75;29.10;;;;;;;8.81;68.82;98415.48;2870160;81;21159;-71
2020/12/04 14:01:33;;;;;;;33.83;23.92;;;;;;;8.74;68.75;98415.80;2870364;82;21136;-69
2020/12/04 14:05:36;;;;;;;53.42;35.52;;;;;;;8.68;68.63;98431.84;2870062;82;21168;-69
2020/12/04 14:09:39;;;;;;;49.93;33.08;;;;;;;8.62;68.30;98441.25;2869690;82;21641;-70
2020/12/04 14:13:44;;;;;;;48.95;33.80;;;;;;;8.47;67.86;98449.45;2870356;82;21136;-70
2020/12/04 14:17:49;;;;;;;30.50;24.50;;;;;;;8.38;68.06;98442.77;2870142;82;21179;-69
2020/12/04 14:21:51;;;;;;;323.65;179.93;;;;;;;8.24;68.25;98418.17;2870236;82;21144;-70
2020/12/04 14:25:54;;;;;;;156.40;91.75;;;;;;;8.14;68.68;98415.63;2870443;82;21196;-70
2020/12/04 14:29:57;;;;;;;73.30;49.08;;;;;;;7.94;68.79;98416.34;2869984;82;21131;-69
2020/12/04 14:34:00;;;;;;;41.85;24.95;;;;;;;7.61;69.51;98408.98;2870355;82;21143;-74
2020/12/04 14:38:04;;;;;;;44.42;26.20;;;;;;;7.33;70.72;98412.22;2857951;82;21116;-69
2020/12/04 14:42:07;;;;;;;41.68;31.60;;;;;;;7.13;71.52;98430.86;2848363;83;21152;-75
2020/12/04 14:46:11;;;;;;;30.82;22.07;;;;;;;7.00;72.26;98437.33;2848412;83;21156;-70
2020/12/04 14:50:14;;;;;;;27.65;20.65;;;;;;;6.89;72.54;98437.55;2847816;83;21128;-69
2020/12/04 14:54:16;;;;;;;27.95;19.50;;;;;;;6.86;72.78;98439.14;2848161;83;21155;-72
2020/12/04 14:58:20;;;;;;;31.62;23.98;;;;;;;6.81;72.94;98432.16;2848215;83;21160;-73
2020/12/04 15:02:25;;;;;;;47.88;29.25;;;;;;;6.73;73.24;98447.42;2847709;82;21163;-73
2020/12/04 15:06:30;;;;;;;52.55;30.37;;;;;;;6.68;73.30;98447.88;2848152;82;21101;-74
2020/12/04 15:10:35;;;;;;;53.73;32.33;;;;;;;6.56;73.56;98433.19;2870144;82;21138;-71
2020/12/04 15:14:38;;;;;;;55.83;33.78;;;;;;;6.48;73.77;98440.98;2747247;86;21185;-72
2020/12/04 15:18:41;;;;;;;78.35;41.55;;;;;;;6.44;73.87;98425.94;2792738;84;21190;-73
2020/12/04 15:22:45;;;;;;;76.70;42.95;;;;;;;6.40;73.94;98431.98;2779973;85;21178;-73
2020/12/04 15:26:48;;;;;;;100.12;56.58;;;;;;;6.33;74.11;98438.84;2746848;86;21624;-73
2020/12/04 15:30:51;;;;;;;103.35;56.73;;;;;;;6.24;74.29;98446.28;2792846;85;21122;-71
2020/12/04 15:34:53;;;;;;;55.08;31.57;;;;;;;6.19;74.56;98459.94;2779714;85;21150;-73
2020/12/04 15:38:57;;;;;;;70.30;41.05;;;;;;;6.17;74.48;98463.69;2727367;85;21220;-73
2020/12/04 15:43:00;;;;;;;82.62;43.00;;;;;;;6.16;74.72;98465.47;2725659;86;21176;-72
2020/12/04 15:47:04;;;;;;;84.15;52.38;;;;;;;6.26;74.46;98464.98;2765040;85;21179;-71
2020/12/04 15:51:08;;;;;;;36.60;25.70;;;;;;;6.35;74.06;98472.53;2778568;85;21184;-72
2020/12/04 15:55:10;;;;;;;32.83;23.98;;;;;;;6.54;73.61;98471.63;2770717;85;21169;-72
2020/12/04 15:59:14;;;;;;;26.80;20.10;;;;;;;6.77;72.81;98466.47;2776868;84;21189;-72
2020/12/04 16:03:17;;;;;;;31.65;22.10;;;;;;;6.88;72.33;98480.83;2771147;85;21165;-71
2020/12/04 16:07:20;;;;;;;26.87;18.87;;;;;;;6.99;72.01;98488.54;2817471;84;21145;-72
2020/12/04 16:11:24;;;;;;;31.20;18.20;;;;;;;7.06;71.66;98483.98;2771268;85;21141;-71
2020/12/04 16:15:27;;;;;;;38.38;17.82;;;;;;;7.05;71.49;98495.53;2818071;84;21138;-72
2020/12/04 16:19:32;;;;;;;41.55;21.02;;;;;;;7.03;71.45;98490.41;2817244;84;21636;-72
2020/12/04 16:23:35;;;;;;;33.38;22.05;;;;;;;7.00;71.50;98488.06;2771285;85;21172;-72
2020/12/04 16:27:38;;;;;;;30.00;19.27;;;;;;;6.94;71.45;98479.38;2817556;83;21141;-72
2020/12/04 16:31:43;;;;;;;28.87;20.00;;;;;;;6.93;71.47;98490.46;2769804;84;21182;-71
2020/12/04 16:35:48;;;;;;;33.30;21.62;;;;;;;6.89;71.60;98481.17;2720164;86;21190;-73
2020/12/04 16:39:51;;;;;;;30.60;18.57;;;;;;;6.85;71.60;98481.09;2731927;86;21128;-73
2020/12/04 16:43:53;;;;;;;29.40;18.70;;;;;;;6.84;71.45;98482.07;2770580;85;21162;-73
2020/12/04 16:47:57;;;;;;;29.72;20.15;;;;;;;6.77;71.66;98480.50;2778184;85;21164;-72
2020/12/04 16:52:00;;;;;;;35.08;23.98;;;;;;;6.71;71.92;98483.73;2778207;84;21149;-70
2020/12/04 16:56:03;;;;;;;23.42;16.23;;;;;;;6.74;72.00;98479.98;2770592;85;21203;-71
2020/12/04 17:00:06;;;;;;;30.10;21.42;;;;;;;6.77;71.95;98484.97;2778330;85;21141;-72
2020/12/04 17:04:09;;;;;;;32.08;22.85;;;;;;;6.83;71.81;98487.02;2770359;85;21543;-71
2020/12/04 17:08:12;;;;;;;39.10;23.55;;;;;;;6.84;71.60;98478.11;2778419;85;21169;-74
2020/12/04 17:12:16;;;;;;;39.05;23.18;;;;;;;6.86;71.52;98478.79;2778329;84;21189;-71
2020/12/04 17:16:19;;;;;;;49.48;27.77;;;;;;;6.82;71.62;98489.31;2770414;85;21189;-72
2020/12/04 17:20:23;;;;;;;45.25;25.35;;;;;;;6.76;71.70;98485.44;2778090;85;21193;-70
2020/12/04 17:24:26;;;;;;;31.17;21.97;;;;;;;6.75;71.78;98493.03;2778236;84;21181;-71
2020/12/04 17:28:30;;;;;;;34.45;22.22;;;;;;;6.76;71.83;98506.58;2769890;85;21165;-67
2020/12/04 17:32:33;;;;;;;33.83;24.15;;;;;;;6.81;71.79;98520.22;2769991;85;21142;-68
2020/12/04 17:36:36;;;;;;;37.73;25.15;;;;;;;6.88;71.71;98520.47;2778433;85;21571;-64
2020/12/04 17:40:39;;;;;;;48.08;30.75;;;;;;;6.94;71.56;98529.61;2775479;84;21204;-66
2020/12/04 17:44:42;;;;;;;78.55;45.05;;;;;;;6.99;71.49;98513.66;2790961;85;21155;-66
2020/12/04 17:48:45;;;;;;;43.95;25.60;;;;;;;6.93;71.35;98510.76;2783632;85;21180;-64
2020/12/04 17:52:48;;;;;;;39.20;24.70;;;;;;;6.77;72.08;98518.00;2772838;85;21161;-65
2020/12/04 17:56:51;;;;;;;37.25;25.17;;;;;;;6.75;72.47;98523.42;2768085;85;21180;-63
2020/12/04 18:00:54;;;;;;;32.83;21.35;;;;;;;6.85;72.25;98533.48;2775226;85;21177;-65
2020/12/04 18:04:57;;;;;;;39.65;27.95;;;;;;;6.94;71.98;98537.06;2775278;85;21165;-64
2020/12/04 18:09:00;;;;;;;60.67;36.65;;;;;;;7.01;71.64;98529.39;2775425;85;21160;-65
2020/12/04 18:13:03;;;;;;;47.80;35.73;;;;;;;6.93;71.59;98530.11;2775323;85;21150;-63
2020/12/04 18:17:06;;;;;;;43.87;27.42;;;;;;;6.85;71.60;98524.70;2775083;85;21145;-64
2020/12/04 18:21:09;;;;;;;30.00;23.75;;;;;;;6.74;71.90;98522.26;2775270;85;21157;-64
2020/12/04 18:25:12;;;;;;;40.55;24.23;;;;;;;6.75;72.24;98529.20;2775362;85;21655;-65
2020/12/04 18:29:15;;;;;;;41.02;25.40;;;;;;;6.66;72.56;98518.51;2775137;85;21181;-65
2020/12/04 18:33:18;;;;;;;35.58;24.52;;;;;;;6.74;72.89;98506.41;2775393;84;21199;-65
2020/12/04 18:37:21;;;;;;;37.98;24.63;;;;;;;6.86;72.66;98499.94;2777935;84;21210;-64
2020/12/04 18:41:24;;;;;;;41.58;29.37;;;;;;;6.97;72.21;98502.40;2807590;84;21175;-64
2020/12/04 18:45:27;;;;;;;70.37;44.35;;;;;;;7.04;71.90;98500.01;2807681;84;21151;-63
2020/12/04 18:49:30;;;;;;;48.30;30.32;;;;;;;7.11;71.76;98500.25;2800815;84;21585;-63
2020/12/04 18:53:34;;;;;;;39.50;25.05;;;;;;;6.96;71.92;98498.09;2804565;84;21127;-63
2020/12/04 18:57:37;;;;;;;70.20;43.45;;;;;;;6.83;72.58;98494.94;2807746;84;21167;-65
2020/12/04 19:01:40;;;;;;;75.32;39.35;;;;;;;6.83;72.55;98497.59;2807693;84;21143;-65
2020/12/04 19:05:43;;;;;;;57.80;36.73;;;;;;;6.83;72.53;98494.94;2804544;84;21170;-63
2020/12/04 19:09:46;;;;;;;69.62;41.68;;;;;;;6.83;72.41;98506.84;2788760;84;21138;-63